Time;durP1;ratioP1;P1;durP2;ratioP2;P2;SDS_P1;SDS_P2;PMS_P1;PMS_P2;Temp;Humidity;BMP_temperature;BMP_pressure;BME280_temperature;BME280_humidity;BME280_pressure;Samples;Min_cycle;Max_cycle;Signal;HPM_P1;HPM_P2
2022/11/24 00:00:10;;;;;;;7.43;2.13;;;;;;;5.79;nan;97384.25;5034008;28;20225;-69
2022/11/24 00:02:37;;;;;;;9.53;2.17;;;;;;;5.81;nan;97392.78;5033728;28;20566;-69
2022/11/24 00:05:03;;;;;;;9.27;2.10;;;;;;;5.80;nan;97385.88;5034065;28;20292;-69
2022/11/24 00:07:30;;;;;;;7.73;2.10;;;;;;;5.80;nan;97386.72;5033140;28;20206;-69
2022/11/24 00:09:56;;;;;;;13.30;2.30;;;;;;;5.82;nan;97389.13;5033951;28;20210;-69
2022/11/24 00:12:22;;;;;;;7.83;2.13;;;;;;;5.88;nan;97388.31;5034090;28;20225;-69
2022/11/24 00:14:49;;;;;;;8.90;2.10;;;;;;;5.79;nan;97394.78;5033861;28;20228;-69
2022/11/24 00:17:15;;;;;;;7.50;1.80;;;;;;;5.76;nan;97397.84;5033550;28;20210;-69
2022/11/24 00:19:41;;;;;;;6.07;2.23;;;;;;;5.82;nan;97395.22;5033749;28;20248;-69
2022/11/24 00:22:08;;;;;;;8.33;2.23;;;;;;;5.96;nan;97399.47;5033685;28;20236;-69
2022/11/24 00:24:34;;;;;;;8.37;1.90;;;;;;;5.94;nan;97400.69;5033472;28;20216;-69
2022/11/24 00:27:00;;;;;;;8.60;2.10;;;;;;;5.90;nan;97397.66;5033421;28;20210;-69
2022/11/24 00:29:27;;;;;;;10.73;2.40;;;;;;;5.93;nan;97397.22;5033359;28;20574;-69
2022/11/24 00:31:53;;;;;;;6.93;1.83;;;;;;;6.01;nan;97404.13;5033599;28;20275;-69
2022/11/24 00:34:19;;;;;;;6.30;2.10;;;;;;;6.03;nan;97404.72;5033599;28;20206;-69
2022/11/24 00:36:46;;;;;;;12.20;2.23;;;;;;;6.00;nan;97411.22;5033614;28;20232;-69
2022/11/24 00:39:14;;;;;;;9.43;2.07;;;;;;;6.04;nan;97407.16;5033498;28;20232;-69
2022/11/24 00:41:42;;;;;;;11.27;2.57;;;;;;;6.07;nan;97412.00;5033456;28;20303;-69
2022/11/24 00:44:09;;;;;;;6.60;2.13;;;;;;;6.13;nan;97418.28;5033533;28;20213;-69
2022/11/24 00:46:35;;;;;;;8.90;2.50;;;;;;;6.12;nan;97420.16;5033090;28;20232;-70
2022/11/24 00:49:02;;;;;;;6.53;2.20;;;;;;;6.13;nan;97424.41;5033455;28;20210;-69
2022/11/24 00:51:29;;;;;;;10.43;2.73;;;;;;;6.12;nan;97421.97;5033127;28;20237;-69
2022/11/24 00:54:00;;;;;;;8.40;2.00;;;;;;;6.17;nan;97422.16;5033361;28;20583;-69
2022/11/24 00:56:27;;;;;;;9.33;2.30;;;;;;;6.17;nan;97428.25;5033540;28;20285;-69
2022/11/24 00:58:54;;;;;;;11.47;2.20;;;;;;;6.14;nan;97431.28;5033328;28;20255;-69
2022/11/24 01:01:26;;;;;;;6.53;1.90;;;;;;;6.06;nan;97433.34;5033333;28;20321;-70
2022/11/24 01:03:53;;;;;;;7.07;2.20;;;;;;;5.96;nan;97433.75;5033096;28;20192;-69
2022/11/24 01:06:23;;;;;;;9.60;2.27;;;;;;;5.93;nan;97438.63;5033287;28;20244;-69
2022/11/24 01:08:50;;;;;;;12.37;2.47;;;;;;;5.92;nan;97443.09;5033215;28;20202;-69
2022/11/24 01:11:22;;;;;;;8.37;2.10;;;;;;;5.87;nan;97444.72;5033183;28;20233;-69
2022/11/24 01:13:53;;;;;;;7.10;1.83;;;;;;;5.89;nan;97435.56;5033260;28;20198;-69
2022/11/24 01:16:21;;;;;;;6.20;1.57;;;;;;;5.89;nan;97447.97;5032993;28;20196;-69
2022/11/24 01:18:48;;;;;;;9.87;2.17;;;;;;;5.85;nan;97446.75;5034217;28;20623;-69
2022/11/24 01:21:15;;;;;;;7.70;2.10;;;;;;;5.83;nan;97459.34;5037067;28;20588;-69
2022/11/24 01:23:42;;;;;;;5.80;2.00;;;;;;;5.86;nan;97459.75;5037142;28;20301;-69
2022/11/24 01:26:11;;;;;;;13.07;2.20;;;;;;;5.81;nan;97472.72;5037006;28;20209;-70
2022/11/24 01:28:38;;;;;;;8.57;2.30;;;;;;;5.88;nan;97467.47;5036978;28;20202;-70
2022/11/24 01:31:07;;;;;;;9.50;2.17;;;;;;;5.91;nan;97472.31;5036936;28;20222;-70
2022/11/24 01:33:36;;;;;;;7.17;1.97;;;;;;;6.06;nan;97471.06;5036633;28;20688;-70
2022/11/24 01:36:04;;;;;;;8.73;2.20;;;;;;;6.00;nan;97468.44;5036577;28;20540;-70
2022/11/24 01:38:30;;;;;;;12.53;2.27;;;;;;;6.05;nan;97469.47;5036861;28;20206;-70
2022/11/24 01:41:11;;;;;;;4.87;1.80;;;;;;;6.06;nan;97476.34;5036716;28;20245;-70
2022/11/24 01:43:38;;;;;;;7.50;2.40;;;;;;;6.09;nan;97469.84;5037029;28;20197;-70
2022/11/24 01:46:28;;;;;;;7.27;2.17;;;;;;;6.07;nan;97477.19;5036705;28;20209;-70
2022/11/24 01:49:14;;;;;;;5.10;1.90;;;;;;;6.05;nan;97469.47;5027159;28;20579;-70
2022/11/24 01:51:45;;;;;;;10.77;2.53;;;;;;;6.23;nan;97476.75;5036385;28;20240;-70
2022/11/24 01:54:18;;;;;;;10.97;2.60;;;;;;;6.29;nan;97481.22;5036617;28;20197;-70
2022/11/24 01:56:48;;;;;;;10.00;2.87;;;;;;;6.25;nan;97472.88;5037131;28;20197;-70
2022/11/24 01:59:18;;;;;;;11.97;2.83;;;;;;;6.28;nan;97479.56;5036111;28;20572;-70
2022/11/24 02:01:46;;;;;;;5.20;2.23;;;;;;;6.28;nan;97482.22;5036395;28;20261;-70
2022/11/24 02:04:17;;;;;;;5.77;1.67;;;;;;;6.29;nan;97481.22;5036434;28;20548;-70
2022/11/24 02:06:45;;;;;;;5.47;1.87;;;;;;;6.32;nan;97486.88;5036339;28;20190;-70
2022/11/24 02:09:22;;;;;;;9.90;2.03;;;;;;;6.33;nan;97485.06;5035975;28;20688;-70
2022/11/24 02:11:49;;;;;;;8.70;1.90;;;;;;;6.23;nan;97482.00;5036215;28;20229;-70
2022/11/24 02:14:17;;;;;;;5.47;1.97;;;;;;;6.22;nan;97485.69;5036144;28;20212;-70
2022/11/24 02:16:49;;;;;;;8.57;2.03;;;;;;;6.26;nan;97484.25;5035985;28;20238;-70
2022/11/24 02:20:02;;;;;;;5.83;1.60;;;;;;;6.34;nan;97490.13;5035751;28;20221;-70
2022/11/24 02:22:36;;;;;;;9.40;2.30;;;;;;;6.44;nan;97489.72;5036043;28;20320;-70
2022/11/24 02:25:16;;;;;;;4.33;1.93;;;;;;;6.55;nan;97491.69;5036033;28;20190;-70
2022/11/24 02:27:45;;;;;;;10.07;1.80;;;;;;;6.67;nan;97500.63;5036000;28;20194;-70
2022/11/24 02:30:11;;;;;;;9.63;2.20;;;;;;;6.79;nan;97498.97;5034511;28;20209;-70
2022/11/24 02:32:41;;;;;;;5.70;1.80;;;;;;;6.73;nan;97500.59;5036101;28;20212;-70
2022/11/24 02:35:10;;;;;;;6.07;1.63;;;;;;;6.85;nan;97501.59;5035796;28;20190;-70
2022/11/24 02:37:36;;;;;;;12.57;2.10;;;;;;;6.86;nan;97499.72;5035464;28;20212;-70
2022/11/24 02:40:03;;;;;;;3.67;1.37;;;;;;;6.89;nan;97505.44;5035649;28;20221;-70
2022/11/24 02:42:36;;;;;;;6.10;1.73;;;;;;;6.90;nan;97498.31;5035548;28;20229;-70
2022/11/24 02:45:02;;;;;;;6.30;1.53;;;;;;;6.86;nan;97499.72;5034186;28;20638;-70
2022/11/24 02:47:29;;;;;;;5.97;1.87;;;;;;;6.73;nan;97497.13;5035530;28;20253;-70
2022/11/24 02:49:55;;;;;;;5.83;1.80;;;;;;;6.71;nan;97493.91;5035423;28;20209;-70
2022/11/24 02:52:21;;;;;;;6.10;1.67;;;;;;;6.57;nan;97498.44;5034997;28;20229;-70
2022/11/24 02:54:48;;;;;;;6.07;1.63;;;;;;;6.59;nan;97498.19;5035500;28;20216;-70
2022/11/24 02:57:15;;;;;;;5.93;1.63;;;;;;;6.51;nan;97501.06;5035330;28;20202;-70
2022/11/24 02:59:41;;;;;;;6.40;1.90;;;;;;;6.41;nan;97503.31;5035331;28;20226;-70
2022/11/24 03:02:09;;;;;;;5.83;1.77;;;;;;;6.44;nan;97500.25;5034930;28;20238;-70
2022/11/24 03:04:35;;;;;;;7.63;1.80;;;;;;;6.35;nan;97509.41;5035243;28;20206;-70
2022/11/24 03:07:02;;;;;;;6.93;1.70;;;;;;;6.38;nan;97516.94;5035239;28;20206;-70
2022/11/24 03:09:28;;;;;;;6.07;1.30;;;;;;;6.32;nan;97515.09;5035072;28;20202;-70
2022/11/24 03:11:54;;;;;;;6.40;1.70;;;;;;;6.29;nan;97512.88;5034774;28;20724;-70
2022/11/24 03:14:21;;;;;;;8.27;1.83;;;;;;;6.24;nan;97510.84;5035064;28;20210;-70
2022/11/24 03:16:47;;;;;;;5.43;1.70;;;;;;;6.10;nan;97511.09;5035007;28;20236;-70
2022/11/24 03:19:14;;;;;;;4.07;1.30;;;;;;;5.99;nan;97512.50;5034921;28;20202;-70
2022/11/24 03:21:40;;;;;;;6.27;1.63;;;;;;;5.90;nan;97520.81;5034812;28;20252;-70
2022/11/24 03:24:06;;;;;;;8.83;1.70;;;;;;;5.80;nan;97523.00;5034777;28;20201;-70
2022/11/24 03:26:34;;;;;;;7.07;1.80;;;;;;;5.80;nan;97520.38;5034515;28;20212;-70
2022/11/24 03:29:00;;;;;;;7.87;1.77;;;;;;;5.83;nan;97523.44;5034806;28;20206;-70
2022/11/24 03:31:27;;;;;;;7.70;1.77;;;;;;;5.72;nan;97524.03;5034677;28;20232;-70
2022/11/24 03:33:53;;;;;;;7.80;1.43;;;;;;;5.79;nan;97531.94;5035111;28;20205;-70
2022/11/24 03:36:19;;;;;;;6.40;1.17;;;;;;;5.77;nan;97528.69;5034286;28;20220;-70
2022/11/24 03:38:46;;;;;;;10.90;1.90;;;;;;;5.73;nan;97530.91;5034243;28;20213;-70
2022/11/24 03:41:13;;;;;;;4.87;1.60;;;;;;;5.87;nan;97529.13;5034125;28;20233;-70
2022/11/24 03:43:39;;;;;;;4.23;1.57;;;;;;;5.97;nan;97537.47;5034169;28;20572;-69
2022/11/24 03:46:05;;;;;;;5.50;1.53;;;;;;;5.96;nan;97546.38;5034488;28;20205;-70
2022/11/24 03:48:32;;;;;;;7.53;1.70;;;;;;;6.09;nan;97549.84;5034026;28;20779;-70
2022/11/24 03:51:01;;;;;;;6.40;1.63;;;;;;;6.03;nan;97542.75;5034160;28;20241;-70
2022/11/24 03:53:29;;;;;;;3.43;1.20;;;;;;;6.03;nan;97544.56;5034039;28;20240;-70
2022/11/24 03:55:56;;;;;;;6.67;1.73;;;;;;;6.00;nan;97540.50;5034345;28;20206;-70
2022/11/24 03:58:23;;;;;;;8.23;1.80;;;;;;;5.91;nan;97554.91;5033851;28;20212;-70
2022/11/24 04:00:50;;;;;;;5.30;1.43;;;;;;;5.87;nan;97558.13;5033872;28;20570;-70
2022/11/24 04:03:18;;;;;;;5.40;1.87;;;;;;;5.86;nan;97554.69;5034038;28;20213;-70
2022/11/24 04:05:44;;;;;;;4.93;1.47;;;;;;;5.87;nan;97561.59;5033660;28;20267;-70
2022/11/24 04:08:11;;;;;;;3.27;1.27;;;;;;;5.83;nan;97568.28;5034514;28;20209;-70
2022/11/24 04:10:38;;;;;;;4.73;1.53;;;;;;;5.82;nan;97568.47;5033588;28;20222;-70
2022/11/24 04:13:10;;;;;;;5.10;1.27;;;;;;;5.83;nan;97578.03;5033934;28;20214;-70
2022/11/24 04:15:39;;;;;;;7.57;1.57;;;;;;;5.85;nan;97568.09;5033646;28;20714;-70
2022/11/24 04:18:05;;;;;;;5.90;1.30;;;;;;;5.87;nan;97571.31;5033564;28;20209;-70
2022/11/24 04:20:32;;;;;;;6.17;2.10;;;;;;;5.91;nan;97562.00;5033663;28;20232;-70
2022/11/24 04:22:58;;;;;;;6.30;1.67;;;;;;;5.87;nan;97572.16;5033773;28;20212;-70
2022/11/24 04:25:25;;;;;;;5.10;2.10;;;;;;;5.83;nan;97576.19;5033402;28;20221;-70
2022/11/24 04:27:53;;;;;;;4.87;1.40;;;;;;;5.73;nan;97574.91;5033698;28;20212;-70
2022/11/24 04:30:21;;;;;;;6.73;1.50;;;;;;;5.71;nan;97587.50;5034024;28;20574;-70
2022/11/24 04:32:47;;;;;;;5.70;1.37;;;;;;;5.69;nan;97589.50;5033571;28;20235;-70
2022/11/24 04:35:14;;;;;;;3.47;1.33;;;;;;;5.72;nan;97589.94;5033445;28;20212;-70
2022/11/24 04:37:41;;;;;;;5.80;1.50;;;;;;;5.70;nan;97588.53;5033407;28;20550;-70
2022/11/24 04:40:09;;;;;;;4.87;1.17;;;;;;;5.79;nan;97590.75;5033149;28;20221;-70
2022/11/24 04:42:36;;;;;;;7.17;1.80;;;;;;;5.84;nan;97591.00;5033758;28;20217;-70
2022/11/24 04:45:03;;;;;;;5.37;1.33;;;;;;;5.87;nan;97593.25;5033260;28;20575;-70
2022/11/24 04:47:29;;;;;;;5.87;1.47;;;;;;;5.84;nan;97591.00;5032981;28;20670;-70
2022/11/24 04:49:56;;;;;;;5.33;1.40;;;;;;;5.86;nan;97586.34;5032897;28;20684;-70
2022/11/24 04:52:24;;;;;;;6.47;1.30;;;;;;;5.79;nan;97587.31;5032792;28;20240;-70
2022/11/24 04:54:51;;;;;;;2.87;1.23;;;;;;;5.85;nan;97587.38;5039373;28;20312;-70
2022/11/24 04:57:21;;;;;;;6.13;1.70;;;;;;;5.78;nan;97580.41;5040043;28;20209;-70
2022/11/24 04:59:47;;;;;;;5.47;1.63;;;;;;;5.79;nan;97576.78;5039808;28;20221;-70
2022/11/24 05:02:13;;;;;;;5.60;1.40;;;;;;;5.84;nan;97585.72;5039451;28;20232;-70
2022/11/24 05:04:40;;;;;;;6.10;1.80;;;;;;;5.90;nan;97589.41;5040161;28;20293;-70
2022/11/24 05:07:06;;;;;;;8.73;1.80;;;;;;;5.92;nan;97595.31;5039460;28;20214;-70
2022/11/24 05:09:33;;;;;;;5.70;1.60;;;;;;;5.92;nan;97597.94;5039456;28;20212;-70
2022/11/24 05:11:59;;;;;;;8.20;1.97;;;;;;;5.95;nan;97600.97;5039331;28;20583;-70
2022/11/24 05:14:27;;;;;;;8.53;1.77;;;;;;;5.85;nan;97605.00;5039453;28;20672;-70
2022/11/24 05:16:54;;;;;;;6.67;1.77;;;;;;;5.93;nan;97604.84;5039500;28;20213;-70
2022/11/24 05:19:20;;;;;;;8.27;1.80;;;;;;;5.86;nan;97598.72;5039389;28;20221;-70
2022/11/24 05:21:46;;;;;;;8.73;1.90;;;;;;;5.85;nan;97603.19;5039349;28;20230;-70
2022/11/24 05:24:13;;;;;;;7.43;1.80;;;;;;;5.86;nan;97604.81;5039168;28;20676;-70
2022/11/24 05:26:39;;;;;;;9.10;1.80;;;;;;;5.80;nan;97617.97;5039050;28;20221;-70
2022/11/24 05:29:05;;;;;;;6.23;2.00;;;;;;;5.71;nan;97612.06;5039233;28;20210;-70
2022/11/24 05:31:32;;;;;;;7.47;2.17;;;;;;;5.69;nan;97613.25;5039215;28;20249;-70
2022/11/24 05:33:58;;;;;;;9.27;1.60;;;;;;;5.72;nan;97603.13;5038940;28;20693;-70
2022/11/24 05:39:14;;;;;;;5.90;1.90;;;;;;;5.74;nan;97614.28;5023395;28;20277;-70
2022/11/24 05:41:41;;;;;;;6.77;2.00;;;;;;;5.70;nan;97622.81;5039018;28;20237;-70
2022/11/24 05:44:08;;;;;;;4.83;1.50;;;;;;;5.80;nan;97621.44;5039162;28;20202;-70
2022/11/24 05:46:34;;;;;;;8.50;2.20;;;;;;;5.91;nan;97623.50;5038670;28;20202;-70
2022/11/24 05:49:00;;;;;;;10.57;2.47;;;;;;;6.02;nan;97620.25;5039518;28;20202;-70
2022/11/24 05:51:27;;;;;;;9.63;1.80;;;;;;;5.96;nan;97626.34;5038815;28;20244;-69
2022/11/24 05:53:53;;;;;;;6.57;1.80;;;;;;;5.86;nan;97620.66;5038920;28;20239;-70
2022/11/24 05:56:20;;;;;;;8.80;2.00;;;;;;;5.93;nan;97616.19;5039143;28;20586;-70
2022/11/24 05:58:46;;;;;;;6.13;2.00;;;;;;;6.13;nan;97619.69;5038976;28;20300;-70
2022/11/24 06:01:12;;;;;;;4.40;1.63;;;;;;;6.19;nan;97607.50;5038699;28;20233;-70
2022/11/24 06:03:39;;;;;;;7.33;1.90;;;;;;;6.08;nan;97616.84;5038718;28;20202;-70
2022/11/24 06:06:05;;;;;;;6.80;1.73;;;;;;;6.08;nan;97616.84;5035790;28;20228;-70
2022/11/24 06:08:33;;;;;;;9.13;2.00;;;;;;;6.08;nan;97616.84;5035415;28;20206;-70
2022/11/24 06:11:15;;;;;;;6.90;1.90;;;;;;;6.03;nan;97618.44;5035677;28;20225;-70
2022/11/24 06:13:44;;;;;;;8.07;1.73;;;;;;;6.04;nan;97615.59;5035735;28;20580;-70
2022/11/24 06:16:11;;;;;;;9.30;1.80;;;;;;;6.09;nan;97607.91;5035709;28;20214;-69
2022/11/24 06:18:37;;;;;;;9.93;1.80;;;;;;;6.07;nan;97611.75;5035410;28;20206;-70
2022/11/24 06:21:05;;;;;;;7.83;1.90;;;;;;;6.04;nan;97617.41;5034863;28;20234;-70
2022/11/24 06:23:32;;;;;;;7.07;2.27;;;;;;;6.08;nan;97619.47;5035080;28;20206;-70
2022/11/24 06:25:59;;;;;;;7.53;2.47;;;;;;;6.19;nan;97623.34;5035133;28;20201;-70
2022/11/24 06:28:27;;;;;;;11.40;2.37;;;;;;;6.16;nan;97629.03;5034988;28;20572;-70
2022/11/24 06:30:53;;;;;;;8.10;2.43;;;;;;;6.16;nan;97640.38;5035409;28;20313;-69
2022/11/24 06:33:20;;;;;;;12.03;2.87;;;;;;;6.11;nan;97636.72;5035127;28;20209;-70
2022/11/24 06:35:46;;;;;;;8.97;1.97;;;;;;;6.26;nan;97635.53;5035125;28;20228;-70
2022/11/24 06:38:13;;;;;;;9.67;1.87;;;;;;;6.25;nan;97646.28;5035080;28;20210;-70
2022/11/24 06:40:39;;;;;;;7.40;2.17;;;;;;;6.26;nan;97651.38;5035138;28;20236;-70
2022/11/24 06:43:06;;;;;;;6.57;2.17;;;;;;;6.40;nan;97647.72;5034676;28;20214;-69
2022/11/24 06:45:32;;;;;;;7.50;2.03;;;;;;;6.48;nan;97651.97;5034953;28;20210;-70
2022/11/24 06:47:58;;;;;;;6.73;2.20;;;;;;;6.56;nan;97659.72;5034389;28;20216;-70
2022/11/24 06:50:25;;;;;;;8.73;1.80;;;;;;;6.58;nan;97658.50;5034366;28;20216;-70
2022/11/24 06:52:51;;;;;;;9.50;2.80;;;;;;;6.56;nan;97665.78;5035777;28;20198;-70
2022/11/24 06:55:18;;;;;;;7.13;1.83;;;;;;;6.59;nan;97673.31;5034958;28;20205;-70
2022/11/24 06:57:44;;;;;;;7.67;2.23;;;;;;;6.58;nan;97666.41;5035040;28;20224;-70
2022/11/24 07:00:11;;;;;;;5.80;1.93;;;;;;;6.70;nan;97669.25;5034280;28;20240;-70
2022/11/24 07:02:37;;;;;;;6.23;2.00;;;;;;;6.67;nan;97674.94;5034321;28;20297;-70
2022/11/24 07:05:06;;;;;;;10.70;2.47;;;;;;;6.66;nan;97671.47;5034381;28;20668;-70
2022/11/24 07:07:32;;;;;;;9.67;2.47;;;;;;;6.72;nan;97689.16;5034719;28;20256;-70
2022/11/24 07:09:58;;;;;;;9.87;2.10;;;;;;;6.68;nan;97692.41;5034256;28;20197;-70
2022/11/24 07:12:25;;;;;;;9.23;1.90;;;;;;;6.69;nan;97694.84;5034532;28;20241;-70
2022/11/24 07:14:51;;;;;;;13.20;2.50;;;;;;;6.67;nan;97698.72;5034401;28;20577;-70
2022/11/24 07:17:18;;;;;;;9.13;2.30;;;;;;;6.65;nan;97695.47;5033908;28;20210;-70
2022/11/24 07:19:44;;;;;;;11.33;2.50;;;;;;;6.68;nan;97710.88;5034387;28;20235;-70
2022/11/24 07:22:10;;;;;;;9.97;2.70;;;;;;;6.62;nan;97711.72;5034321;28;20229;-70
2022/11/24 07:24:37;;;;;;;12.23;2.70;;;;;;;6.65;nan;97724.53;5034402;28;20202;-70
2022/11/24 07:27:03;;;;;;;9.83;2.60;;;;;;;6.66;nan;97721.66;5034751;28;20209;-70
2022/11/24 07:29:29;;;;;;;8.23;2.23;;;;;;;6.66;nan;97721.66;5034020;28;20205;-70
2022/11/24 07:31:56;;;;;;;10.27;2.40;;;;;;;6.66;nan;97731.44;5033589;28;20228;-69
2022/11/24 07:34:22;;;;;;;10.10;2.40;;;;;;;6.69;nan;97737.09;5033692;28;20684;-70
2022/11/24 07:36:49;;;;;;;12.27;2.77;;;;;;;6.66;nan;97747.28;5033897;28;20214;-70
2022/11/24 07:39:15;;;;;;;13.90;2.70;;;;;;;6.89;nan;97759.09;5034165;28;20214;-70
2022/11/24 07:41:41;;;;;;;9.10;2.07;;;;;;;7.05;nan;97757.84;5033854;28;20260;-70
2022/11/24 07:44:08;;;;;;;10.27;2.20;;;;;;;7.15;nan;97760.91;5033982;28;20206;-70
2022/11/24 07:46:34;;;;;;;12.80;2.30;;;;;;;7.17;nan;97764.97;5033542;28;20212;-70
2022/11/24 07:49:00;;;;;;;8.33;2.47;;;;;;;7.15;nan;97769.63;5033768;28;20313;-69
2022/11/24 07:51:27;;;;;;;10.03;2.63;;;;;;;7.14;nan;97778.59;5033564;28;20583;-70
2022/11/24 07:53:53;;;;;;;10.63;2.20;;;;;;;7.11;nan;97780.84;5034441;28;20216;-70
2022/11/24 07:56:19;;;;;;;9.53;2.67;;;;;;;7.15;nan;97787.34;5033951;28;20208;-69
2022/11/24 07:58:46;;;;;;;8.67;1.80;;;;;;;7.18;nan;97792.22;5033950;28;20202;-69
2022/11/24 08:01:17;;;;;;;6.23;1.77;;;;;;;7.12;nan;97785.94;5033525;28;20229;-69
2022/11/24 08:03:45;;;;;;;5.00;1.50;;;;;;;7.14;nan;97785.69;5033460;28;20194;-70
2022/11/24 08:06:13;;;;;;;6.30;1.77;;;;;;;7.11;nan;97775.53;5033375;28;20210;-70
2022/11/24 08:08:39;;;;;;;6.53;1.93;;;;;;;7.14;nan;97767.19;5033328;28;20678;-69
2022/11/24 08:11:12;;;;;;;6.77;1.80;;;;;;;7.11;nan;97757.84;5033517;28;20677;-70
2022/11/24 08:13:39;;;;;;;6.43;1.80;;;;;;;7.17;nan;97769.44;5033578;28;20202;-69
2022/11/24 08:16:10;;;;;;;5.70;1.60;;;;;;;7.18;nan;97771.06;5033535;28;20208;-69
2022/11/24 08:18:37;;;;;;;5.40;1.23;;;;;;;7.15;nan;97774.13;5033310;28;20565;-70
2022/11/24 08:21:05;;;;;;;4.77;1.20;;;;;;;7.25;nan;97778.00;5033188;28;20748;-70
2022/11/24 08:23:32;;;;;;;5.20;1.40;;;;;;;7.23;nan;97773.91;5033560;28;20210;-69
2022/11/24 08:26:03;;;;;;;5.03;1.43;;;;;;;7.14;nan;97773.31;5033355;28;20206;-69
2022/11/24 08:28:30;;;;;;;6.03;1.30;;;;;;;7.14;nan;97783.06;5032579;28;20197;-70
2022/11/24 08:31:12;;;;;;;6.93;1.40;;;;;;;7.22;nan;97781.03;5032917;28;20281;-70
2022/11/24 08:33:39;;;;;;;2.83;1.00;;;;;;;7.25;nan;97779.81;5033117;28;20211;-69
2022/11/24 08:36:08;;;;;;;2.63;0.87;;;;;;;7.30;nan;97791.41;5032886;28;20209;-69
2022/11/24 08:38:35;;;;;;;3.40;1.13;;;;;;;7.29;nan;97792.41;5033153;28;20201;-69
2022/11/24 08:41:03;;;;;;;3.33;0.70;;;;;;;7.31;nan;97797.50;5032862;28;20593;-70
2022/11/24 08:43:29;;;;;;;2.80;1.23;;;;;;;7.31;nan;97808.06;5032671;28;20574;-70
2022/11/24 08:45:59;;;;;;;3.07;1.00;;;;;;;7.30;nan;97806.44;5032917;28;20660;-69
2022/11/24 08:48:26;;;;;;;2.83;0.67;;;;;;;7.33;nan;97809.50;5032984;28;20683;-69
2022/11/24 08:50:52;;;;;;;1.40;0.60;;;;;;;7.29;nan;97815.41;5032494;28;20601;-69
2022/11/24 08:53:19;;;;;;;2.07;0.70;;;;;;;7.28;nan;97821.72;5032786;28;20216;-69
2022/11/24 08:55:45;;;;;;;2.07;0.70;;;;;;;7.26;nan;97810.50;5032917;28;20232;-69
2022/11/24 08:58:11;;;;;;;1.50;0.93;;;;;;;7.24;nan;97810.72;5032841;28;20210;-70
2022/11/24 09:00:38;;;;;;;3.03;1.60;;;;;;;7.23;nan;97819.66;5032984;28;20225;-70
2022/11/24 09:03:04;;;;;;;2.67;0.80;;;;;;;7.27;nan;97830.63;5033221;28;20206;-70
2022/11/24 09:05:32;;;;;;;1.87;0.70;;;;;;;7.17;nan;97819.66;5033132;28;20201;-70
2022/11/24 09:07:58;;;;;;;1.13;0.60;;;;;;;7.27;nan;97820.06;5033675;28;20206;-69
2022/11/24 09:10:25;;;;;;;1.57;0.60;;;;;;;7.29;nan;97820.69;5032936;28;20212;-70
2022/11/24 09:12:51;;;;;;;3.03;0.60;;;;;;;7.33;nan;97817.41;5032780;28;20241;-70
2022/11/24 09:15:19;;;;;;;1.97;0.50;;;;;;;7.47;nan;97823.53;5032993;28;20210;-69
2022/11/24 09:17:45;;;;;;;1.10;0.40;;;;;;;7.55;nan;97828.63;5032518;28;20297;-69
2022/11/24 09:20:12;;;;;;;0.90;0.50;;;;;;;7.57;nan;97832.69;5032894;28;20210;-70
2022/11/24 09:22:40;;;;;;;1.23;0.40;;;;;;;7.62;nan;97829.41;5032599;28;20226;-70
2022/11/24 09:25:07;;;;;;;1.00;0.57;;;;;;;7.67;nan;97848.13;5032479;28;20202;-70
2022/11/24 09:27:34;;;;;;;1.73;0.80;;;;;;;7.73;nan;97847.28;5032505;28;20580;-70
2022/11/24 09:30:00;;;;;;;1.30;0.67;;;;;;;7.74;nan;97859.53;5032857;28;20214;-70
2022/11/24 09:32:29;;;;;;;1.77;0.50;;;;;;;7.71;nan;97859.94;5032861;28;20232;-69
2022/11/24 09:34:55;;;;;;;2.73;0.63;;;;;;;7.69;nan;97857.47;5033091;28;20202;-69
2022/11/24 09:37:22;;;;;;;1.43;0.50;;;;;;;7.68;nan;97861.16;5032549;28;20214;-70
2022/11/24 09:39:48;;;;;;;2.90;0.60;;;;;;;7.61;nan;97864.81;5034130;28;20205;-69
2022/11/24 09:42:17;;;;;;;2.13;0.50;;;;;;;7.58;nan;97866.03;5036342;28;20238;-69
2022/11/24 09:45:05;;;;;;;1.47;0.80;;;;;;;7.62;nan;97869.09;5036659;28;20561;-70
2022/11/24 09:47:54;;;;;;;1.40;0.60;;;;;;;7.66;nan;97878.25;5036255;28;20198;-69
2022/11/24 09:50:27;;;;;;;1.17;0.50;;;;;;;7.62;nan;97879.66;5036222;28;20198;-70
2022/11/24 09:53:20;;;;;;;1.87;0.60;;;;;;;7.65;nan;97887.22;5036435;28;20197;-69
2022/11/24 09:55:50;;;;;;;1.43;0.50;;;;;;;7.74;nan;97885.97;5029378;28;20255;-70
2022/11/24 09:58:35;;;;;;;1.50;0.40;;;;;;;7.79;nan;97896.75;5036263;28;20213;-69
2022/11/24 10:01:04;;;;;;;1.23;0.53;;;;;;;7.89;nan;97895.34;5035716;28;20231;-69
2022/11/24 10:03:43;;;;;;;0.63;0.50;;;;;;;7.93;nan;97893.91;5035718;28;20206;-69
2022/11/24 10:06:20;;;;;;;0.40;0.40;;;;;;;7.83;nan;97897.97;5036438;28;20198;-69
2022/11/24 10:08:49;;;;;;;1.03;0.43;;;;;;;7.88;nan;97898.19;5035779;28;20609;-70
2022/11/24 10:11:30;;;;;;;0.40;0.40;;;;;;;7.95;nan;97896.31;5035882;28;20586;-70
2022/11/24 10:14:31;;;;;;;1.07;0.60;;;;;;;7.95;nan;97898.97;5035536;28;20200;-69
2022/11/24 10:17:29;;;;;;;0.60;0.40;;;;;;;8.08;nan;97904.25;5035654;28;20202;-69
2022/11/24 10:20:28;;;;;;;0.87;0.40;;;;;;;8.15;nan;97908.50;5035427;28;20629;-70
2022/11/24 10:23:23;;;;;;;0.37;0.37;;;;;;;8.27;nan;97898.13;5035328;28;20305;-69
2022/11/24 10:26:04;;;;;;;0.80;0.30;;;;;;;8.23;nan;97899.56;5035366;28;20201;-69
2022/11/24 10:28:44;;;;;;;0.90;0.50;;;;;;;8.16;nan;97898.72;5035463;28;20190;-69
2022/11/24 10:31:24;;;;;;;1.73;0.60;;;;;;;8.19;nan;97896.47;5035779;28;20222;-69
2022/11/24 10:33:50;;;;;;;0.40;0.40;;;;;;;8.27;nan;97901.59;5035570;28;20574;-69
2022/11/24 10:36:31;;;;;;;0.50;0.50;;;;;;;8.39;nan;97901.75;5035285;28;20633;-69
2022/11/24 10:39:14;;;;;;;0.60;0.37;;;;;;;8.47;nan;97897.03;5035225;28;20208;-70
2022/11/24 10:42:26;;;;;;;1.83;0.53;;;;;;;8.59;nan;97895.38;5035211;28;20336;-69
2022/11/24 10:45:08;;;;;;;0.80;0.50;;;;;;;8.75;nan;97900.19;5019833;28;20206;-69
2022/11/24 10:47:35;;;;;;;1.30;0.50;;;;;;;8.83;nan;97899.13;5035241;28;20594;-70
2022/11/24 10:50:18;;;;;;;0.60;0.47;;;;;;;9.03;nan;97894.53;5035332;28;20202;-70
2022/11/24 10:52:50;;;;;;;0.97;0.53;;;;;;;9.18;nan;97892.38;5034223;28;20645;-70
2022/11/24 10:55:17;;;;;;;0.83;0.40;;;;;;;9.30;nan;97906.59;5035139;28;20196;-69
2022/11/24 10:57:44;;;;;;;1.93;0.50;;;;;;;9.25;nan;97895.81;5034828;28;20214;-69
2022/11/24 11:00:19;;;;;;;0.63;0.60;;;;;;;9.17;nan;97904.03;5034308;28;20222;-69
2022/11/24 11:02:47;;;;;;;0.80;0.40;;;;;;;9.01;nan;97904.56;5034018;28;20594;-70
2022/11/24 11:05:32;;;;;;;1.47;0.57;;;;;;;8.91;nan;97901.56;5034973;28;20213;-70
2022/11/24 11:08:32;;;;;;;1.50;0.50;;;;;;;8.79;nan;97897.94;5034581;28;20186;-70
2022/11/24 11:11:12;;;;;;;1.03;0.50;;;;;;;8.70;nan;97905.31;5001691;28;20316;-70
2022/11/24 11:13:50;;;;;;;1.47;0.50;;;;;;;8.69;nan;97908.19;5034825;28;20197;-70
2022/11/24 11:16:26;;;;;;;1.90;0.50;;;;;;;8.73;nan;97901.44;5034486;28;20273;-70
2022/11/24 11:18:53;;;;;;;4.00;0.77;;;;;;;8.82;nan;97902.81;5034654;28;20206;-69
2022/11/24 11:21:36;;;;;;;1.50;0.80;;;;;;;8.92;nan;97905.81;5034246;28;20236;-70
2022/11/24 11:24:13;;;;;;;1.77;0.73;;;;;;;8.99;nan;97899.47;5034259;28;20281;-69
2022/11/24 11:26:41;;;;;;;2.50;0.90;;;;;;;9.04;nan;97907.59;5034060;28;20190;-69
2022/11/24 11:29:07;;;;;;;1.13;0.60;;;;;;;9.00;nan;97898.44;5033852;28;20657;-69
2022/11/24 11:31:38;;;;;;;2.70;0.93;;;;;;;9.14;nan;97907.13;5034345;28;20218;-69
2022/11/24 11:34:15;;;;;;;2.57;0.70;;;;;;;9.34;nan;97895.38;5034266;28;20289;-70
2022/11/24 11:36:53;;;;;;;1.77;0.80;;;;;;;9.36;nan;97903.09;5034714;28;20208;-70
2022/11/24 11:39:22;;;;;;;3.03;0.90;;;;;;;9.32;nan;97904.56;5033472;28;20193;-70
2022/11/24 11:41:52;;;;;;;2.17;1.00;;;;;;;9.52;nan;97906.06;5033360;28;20229;-69
2022/11/24 11:44:18;;;;;;;2.50;1.07;;;;;;;9.76;nan;97907.88;5049122;28;20248;-70
2022/11/24 11:46:45;;;;;;;2.93;0.87;;;;;;;9.88;nan;97911.47;5033686;28;20260;-70
2022/11/24 11:49:13;;;;;;;3.37;1.07;;;;;;;10.05;nan;97914.41;5033618;28;20237;-70
2022/11/24 11:52:13;;;;;;;3.80;1.30;;;;;;;10.08;nan;97913.94;5033439;28;20234;-70
2022/11/24 11:55:01;;;;;;;4.60;1.30;;;;;;;9.87;nan;97906.38;5033928;28;20190;-70
2022/11/24 11:57:35;;;;;;;4.63;1.60;;;;;;;9.91;nan;97911.03;5033195;28;20555;-70
2022/11/24 12:00:16;;;;;;;3.73;1.07;;;;;;;10.11;nan;97908.22;5033500;28;20190;-70
2022/11/24 12:02:54;;;;;;;2.40;1.00;;;;;;;10.22;nan;97903.00;5033225;28;20294;-70
2022/11/24 12:05:46;;;;;;;4.23;1.20;;;;;;;10.29;nan;97902.91;5033108;28;20194;-70
2022/11/24 12:08:41;;;;;;;3.97;1.50;;;;;;;10.34;nan;97905.72;5033392;28;20225;-70
2022/11/24 12:11:15;;;;;;;3.87;1.23;;;;;;;10.37;nan;97906.09;5032419;28;20240;-70
2022/11/24 12:13:53;;;;;;;5.83;1.40;;;;;;;10.14;nan;97915.75;5032138;28;20193;-70